Time;durP1;ratioP1;P1;durP2;ratioP2;P2;SDS_P1;SDS_P2;PMS_P1;PMS_P2;Temp;Humidity;BMP_temperature;BMP_pressure;BME280_temperature;BME280_humidity;BME280_pressure;Samples;Min_cycle;Max_cycle;Signal;HPM_P1;HPM_P2
2021/05/19 00:01:46;;;;;;;0.50;0.50;;;;;;;8.66;55.03;92126.09;4973637;28;20110;-76
2021/05/19 00:04:12;;;;;;;0.70;0.52;;;;;;;8.54;56.17;92123.94;4971195;28;20101;-77
2021/05/19 00:06:38;;;;;;;1.15;0.60;;;;;;;8.49;56.69;92131.06;4958611;28;20042;-76
2021/05/19 00:09:06;;;;;;;0.98;0.60;;;;;;;8.39;56.85;92131.91;4953515;29;20047;-76
2021/05/19 00:11:33;;;;;;;2.03;0.70;;;;;;;8.33;56.88;92130.44;4953380;29;20040;-76
2021/05/19 00:13:59;;;;;;;3.17;0.50;;;;;;;8.27;57.15;92131.56;4975677;28;20125;-76
2021/05/19 00:16:24;;;;;;;0.85;0.50;;;;;;;8.20;57.70;92129.31;4991757;28;20382;-76
2021/05/19 00:18:51;;;;;;;0.95;0.60;;;;;;;8.13;57.95;92140.06;4992048;28;20046;-75
2021/05/19 00:21:16;;;;;;;0.73;0.60;;;;;;;8.08;57.06;92137.53;4980130;28;20043;-75
2021/05/19 00:23:42;;;;;;;1.90;0.57;;;;;;;8.06;56.59;92134.41;4980930;28;20147;-76
2021/05/19 00:26:07;;;;;;;0.98;0.55;;;;;;;8.00;56.99;92143.34;4991739;28;20045;-76
2021/05/19 00:28:33;;;;;;;0.52;0.50;;;;;;;7.96;56.76;92141.56;4972859;28;20057;-76
2021/05/19 00:31:02;;;;;;;0.45;0.45;;;;;;;8.00;55.25;92140.75;4955076;28;20050;-76
2021/05/19 00:33:28;;;;;;;0.43;0.43;;;;;;;8.01;55.49;92141.50;4955465;28;20062;-76
2021/05/19 00:35:54;;;;;;;0.40;0.40;;;;;;;8.02;55.49;92140.47;4971902;28;20580;-76
2021/05/19 00:38:20;;;;;;;0.82;0.40;;;;;;;8.03;55.05;92140.16;4971832;28;20296;-76
2021/05/19 00:40:47;;;;;;;0.85;0.45;;;;;;;8.26;51.73;92137.81;4955209;28;20038;-76
2021/05/19 00:43:12;;;;;;;0.85;0.40;;;;;;;8.23;51.78;92146.22;4972488;28;20047;-76
2021/05/19 00:45:38;;;;;;;0.95;0.40;;;;;;;8.23;52.83;92138.38;4952541;28;20053;-76
2021/05/19 00:48:05;;;;;;;0.55;0.40;;;;;;;8.30;50.81;92133.59;4987073;28;20035;-76
2021/05/19 00:50:31;;;;;;;0.60;0.47;;;;;;;8.30;51.03;92128.38;4974157;28;20069;-76
2021/05/19 00:52:58;;;;;;;0.70;0.52;;;;;;;8.29;50.58;92137.28;4951471;28;20043;-76
2021/05/19 00:55:24;;;;;;;0.80;0.57;;;;;;;8.39;49.47;92137.13;4967928;28;20493;-75
2021/05/19 00:57:52;;;;;;;0.68;0.38;;;;;;;8.42;48.92;92135.81;4954407;28;20039;-76
2021/05/19 01:00:21;;;;;;;0.30;0.30;;;;;;;8.67;46.67;92132.09;4938613;28;20499;-76
2021/05/19 01:02:55;;;;;;;0.32;0.32;;;;;;;8.81;46.50;92132.97;4972019;28;20125;-76
2021/05/19 01:05:41;;;;;;;1.02;0.30;;;;;;;8.90;46.09;92122.66;4967418;28;20048;-76
2021/05/19 01:11:15;;;;;;;0.38;0.30;;;;;;;8.80;45.67;92134.00;4988188;28;20046;-76
2021/05/19 01:13:43;;;;;;;0.30;0.30;;;;;;;8.90;44.82;92131.25;4984082;28;20382;-76
2021/05/19 01:16:10;;;;;;;0.32;0.32;;;;;;;8.91;45.16;92132.03;4973061;28;20042;-76
2021/05/19 01:18:37;;;;;;;0.40;0.40;;;;;;;8.87;45.34;92134.44;4991210;28;20080;-77
2021/05/19 01:21:03;;;;;;;0.30;0.30;;;;;;;8.84;45.68;92135.00;4990666;28;20620;-76
2021/05/19 01:23:30;;;;;;;0.35;0.35;;;;;;;8.83;44.31;92143.88;4989731;28;20052;-77
2021/05/19 01:25:58;;;;;;;0.30;0.30;;;;;;;9.01;44.00;92133.72;4972557;28;20039;-76
2021/05/19 01:28:24;;;;;;;0.57;0.40;;;;;;;9.02;43.72;92137.88;4953797;28;20073;-77
2021/05/19 01:30:50;;;;;;;0.30;0.30;;;;;;;9.02;43.85;92132.66;4956355;28;20149;-77
2021/05/19 01:33:17;;;;;;;1.20;0.50;;;;;;;8.94;44.13;92127.03;4989605;28;20050;-77
2021/05/19 01:35:43;;;;;;;0.43;0.43;;;;;;;8.88;44.16;92138.59;4973229;28;20050;-76
2021/05/19 01:38:13;;;;;;;0.38;0.38;;;;;;;8.80;44.94;92141.81;4990745;28;20049;-77
2021/05/19 01:40:39;;;;;;;1.70;0.47;;;;;;;8.72;45.53;92140.66;4959734;28;20120;-76
2021/05/19 01:43:05;;;;;;;1.63;0.50;;;;;;;8.62;46.50;92151.22;4990483;28;20042;-76
2021/05/19 01:45:49;;;;;;;1.65;0.50;;;;;;;8.47;47.69;92154.03;4962291;28;20418;-76
2021/05/19 01:48:19;;;;;;;0.30;0.30;;;;;;;8.34;48.15;92158.06;4984964;28;20101;-77
2021/05/19 01:50:47;;;;;;;1.10;0.77;;;;;;;8.21;48.51;92164.72;4984552;28;20461;-76
2021/05/19 01:53:13;;;;;;;0.30;0.30;;;;;;;8.08;48.99;92165.41;4990376;28;20066;-77
2021/05/19 01:55:39;;;;;;;0.50;0.50;;;;;;;8.06;47.28;92165.69;4957282;28;20086;-76
2021/05/19 01:58:07;;;;;;;0.30;0.30;;;;;;;8.09;46.20;92170.34;4953450;28;20065;-76
2021/05/19 02:00:35;;;;;;;0.30;0.30;;;;;;;8.15;45.19;92163.25;4970760;28;20134;-76
2021/05/19 02:03:03;;;;;;;0.93;0.40;;;;;;;8.24;44.31;92158.19;4970967;28;20062;-75
2021/05/19 02:05:33;;;;;;;0.80;0.50;;;;;;;8.31;43.45;92161.25;4953097;28;20544;-76
2021/05/19 02:08:01;;;;;;;1.00;0.40;;;;;;;8.37;43.14;92161.94;4971585;28;20046;-76
2021/05/19 02:10:31;;;;;;;0.93;0.50;;;;;;;8.44;41.88;92165.78;4948569;28;20046;-76
2021/05/19 02:13:00;;;;;;;0.63;0.40;;;;;;;8.71;41.33;92165.19;4971053;28;20046;-76
2021/05/19 02:15:26;;;;;;;0.63;0.50;;;;;;;8.88;40.84;92164.69;4986029;28;20056;-76
2021/05/19 02:17:53;;;;;;;0.30;0.30;;;;;;;8.94;40.83;92168.03;4955286;28;20074;-76
2021/05/19 02:20:21;;;;;;;0.75;0.40;;;;;;;8.87;40.88;92172.78;4952712;28;20236;-76
2021/05/19 02:22:48;;;;;;;0.77;0.50;;;;;;;8.87;40.10;92162.34;4971300;28;20070;-77
2021/05/19 02:25:16;;;;;;;0.43;0.43;;;;;;;8.80;40.51;92167.16;4953046;28;20096;-77
2021/05/19 02:27:44;;;;;;;0.40;0.40;;;;;;;8.98;39.54;92168.97;4985531;28;20046;-77
2021/05/19 02:30:15;;;;;;;0.40;0.40;;;;;;;8.91;40.45;92174.56;4953889;28;20304;-76
2021/05/19 02:32:43;;;;;;;2.70;0.40;;;;;;;8.84;40.96;92168.91;4970958;28;20121;-77
2021/05/19 02:35:09;;;;;;;0.40;0.40;;;;;;;8.88;39.74;92167.31;4953618;28;20263;-76
2021/05/19 02:37:37;;;;;;;4.10;0.40;;;;;;;8.86;39.82;92171.25;4966462;28;20039;-76
2021/05/19 02:40:08;;;;;;;0.40;0.40;;;;;;;8.79;40.54;92166.38;4958166;28;20340;-76
2021/05/19 02:42:34;;;;;;;0.32;0.32;;;;;;;8.71;41.11;92185.28;4985540;28;20051;-77
2021/05/19 02:45:00;;;;;;;0.52;0.40;;;;;;;8.67;41.09;92177.25;4964812;28;20035;-76
2021/05/19 02:47:26;;;;;;;0.40;0.40;;;;;;;8.67;42.54;92184.28;4980359;28;20066;-77
2021/05/19 02:49:51;;;;;;;1.13;0.60;;;;;;;8.54;43.13;92186.53;4971707;28;20348;-77
2021/05/19 02:52:17;;;;;;;0.40;0.40;;;;;;;8.43;43.17;92179.91;4985672;28;20195;-77
2021/05/19 02:54:43;;;;;;;1.50;0.55;;;;;;;8.36;43.97;92187.25;4985648;28;20045;-76
2021/05/19 02:57:09;;;;;;;2.70;0.32;;;;;;;8.24;44.57;92192.09;4970823;28;20047;-78
2021/05/19 02:59:35;;;;;;;0.40;0.40;;;;;;;8.09;45.03;92196.41;4969515;28;20442;-76
2021/05/19 03:02:01;;;;;;;0.45;0.43;;;;;;;8.00;45.50;92198.09;4975969;28;20057;-76
2021/05/19 03:04:26;;;;;;;0.30;0.30;;;;;;;7.90;45.64;92206.78;4973358;28;20038;-76
2021/05/19 03:06:52;;;;;;;0.75;0.43;;;;;;;7.81;45.80;92213.63;4979881;28;20118;-76
2021/05/19 03:09:18;;;;;;;0.50;0.50;;;;;;;7.71;45.67;92211.91;4993106;28;20400;-77
2021/05/19 03:11:44;;;;;;;0.32;0.32;;;;;;;7.62;46.33;92213.56;4993862;28;20042;-77
2021/05/19 03:14:10;;;;;;;1.27;0.40;;;;;;;7.52;46.57;92218.88;4993293;28;20034;-76
2021/05/19 03:16:37;;;;;;;0.30;0.30;;;;;;;7.47;46.69;92211.84;4992142;28;20508;-76
2021/05/19 03:19:06;;;;;;;0.30;0.30;;;;;;;7.40;46.99;92213.97;4976235;28;20047;-76
2021/05/19 03:21:33;;;;;;;1.23;0.50;;;;;;;7.35;46.16;92223.69;4972922;28;20206;-77
2021/05/19 03:23:58;;;;;;;0.40;0.30;;;;;;;7.29;46.56;92221.13;4973752;28;20031;-77
2021/05/19 03:26:24;;;;;;;1.27;0.32;;;;;;;7.27;46.32;92225.81;4970745;28;20412;-76
2021/05/19 03:28:50;;;;;;;0.75;0.50;;;;;;;7.25;46.45;92222.69;4993053;28;20042;-76
2021/05/19 03:31:17;;;;;;;0.52;0.50;;;;;;;7.24;46.81;92223.75;4993238;28;20500;-76
2021/05/19 03:33:42;;;;;;;0.40;0.40;;;;;;;7.26;45.81;92226.06;4986074;28;20150;-76
2021/05/19 03:36:08;;;;;;;1.45;0.50;;;;;;;7.27;45.51;92228.41;4993054;28;20150;-76
2021/05/19 03:38:35;;;;;;;0.30;0.30;;;;;;;7.28;46.27;92229.97;4976258;28;20505;-74
2021/05/19 03:41:04;;;;;;;0.32;0.30;;;;;;;7.25;46.93;92235.72;4995965;28;20390;-76
2021/05/19 03:43:30;;;;;;;0.50;0.50;;;;;;;7.21;47.27;92237.31;4988356;28;20446;-76
2021/05/19 03:45:55;;;;;;;0.50;0.50;;;;;;;7.14;47.46;92236.84;4965984;28;20051;-76
2021/05/19 03:48:21;;;;;;;0.45;0.45;;;;;;;7.10;47.95;92246.22;4953182;29;20444;-76
2021/05/19 03:50:47;;;;;;;0.77;0.68;;;;;;;7.03;47.92;92243.94;4954135;29;20122;-76
2021/05/19 03:53:13;;;;;;;0.40;0.40;;;;;;;7.00;48.72;92244.47;4967739;28;20051;-76
2021/05/19 03:55:39;;;;;;;0.40;0.40;;;;;;;6.96;48.66;92245.25;4972759;28;20043;-76
2021/05/19 03:58:05;;;;;;;0.40;0.40;;;;;;;6.94;48.78;92249.97;4960330;28;20058;-76
2021/05/19 04:00:34;;;;;;;0.68;0.50;;;;;;;6.88;48.30;92252.59;4936105;29;20470;-76
2021/05/19 04:03:00;;;;;;;0.60;0.40;;;;;;;6.84;48.21;92256.75;4919618;29;20132;-76
2021/05/19 04:05:27;;;;;;;0.30;0.30;;;;;;;6.82;48.25;92253.69;4936375;29;20039;-76
2021/05/19 04:07:54;;;;;;;0.40;0.40;;;;;;;6.81;48.46;92262.50;4936428;29;20047;-76
2021/05/19 04:10:24;;;;;;;1.15;0.50;;;;;;;6.84;48.25;92261.97;4953421;28;20070;-76
2021/05/19 04:12:51;;;;;;;0.70;0.50;;;;;;;6.84;48.26;92258.59;4936466;29;20484;-76
2021/05/19 04:15:22;;;;;;;0.50;0.40;;;;;;;6.84;48.26;92269.00;4953060;29;20086;-76
2021/05/19 04:17:49;;;;;;;0.60;0.50;;;;;;;6.85;48.32;92268.75;4950770;28;20087;-76
2021/05/19 04:20:16;;;;;;;0.68;0.40;;;;;;;6.84;48.20;92267.19;4933103;29;20046;-76
2021/05/19 04:22:42;;;;;;;0.52;0.50;;;;;;;6.87;48.08;92264.06;4960319;28;20038;-76
2021/05/19 04:25:08;;;;;;;0.35;0.35;;;;;;;6.90;47.81;92264.56;4955482;28;20061;-76
2021/05/19 04:27:33;;;;;;;1.02;0.50;;;;;;;6.93;47.40;92264.78;4952630;29;20047;-76
2021/05/19 04:29:59;;;;;;;0.88;0.40;;;;;;;6.97;47.85;92255.41;4953185;29;20386;-76
2021/05/19 04:32:25;;;;;;;0.45;0.40;;;;;;;7.01;47.82;92263.47;4936063;29;20042;-76
2021/05/19 04:34:51;;;;;;;0.50;0.50;;;;;;;7.03;47.75;92264.75;4950970;29;20489;-76
2021/05/19 04:37:16;;;;;;;1.27;0.60;;;;;;;7.06;47.78;92268.63;4952822;29;20074;-76
2021/05/19 04:39:42;;;;;;;0.95;0.50;;;;;;;7.10;47.08;92272.25;4967938;28;20337;-76
2021/05/19 04:42:08;;;;;;;0.93;0.50;;;;;;;7.19;46.26;92270.63;4952854;29;20046;-76
2021/05/19 04:44:34;;;;;;;0.40;0.40;;;;;;;7.42;44.38;92277.00;4951828;29;20032;-76
2021/05/19 04:47:00;;;;;;;0.40;0.40;;;;;;;7.60;44.10;92283.38;4949481;28;20082;-76
2021/05/19 04:49:26;;;;;;;0.63;0.43;;;;;;;7.80;43.35;92284.28;4950212;28;20130;-76
2021/05/19 04:51:52;;;;;;;2.13;0.40;;;;;;;7.93;43.71;92281.03;4932008;29;20048;-76
2021/05/19 04:54:17;;;;;;;0.63;0.40;;;;;;;8.24;41.31;92283.34;4933776;29;20092;-76
2021/05/19 04:56:43;;;;;;;0.40;0.40;;;;;;;8.35;42.50;92276.97;4938001;28;20086;-76
2021/05/19 04:59:09;;;;;;;0.30;0.30;;;;;;;8.41;43.48;92291.56;4938017;29;20055;-76
2021/05/19 05:01:34;;;;;;;0.38;0.38;;;;;;;8.51;42.78;92281.03;4962541;28;20070;-77
2021/05/19 05:04:00;;;;;;;0.95;0.40;;;;;;;8.65;42.19;92286.34;4952309;28;20055;-76
2021/05/19 05:06:26;;;;;;;0.73;0.50;;;;;;;8.87;39.50;92280.63;4957250;28;20038;-76
2021/05/19 05:08:52;;;;;;;1.52;0.50;;;;;;;8.94;40.89;92277.66;4934647;29;20039;-77
2021/05/19 05:11:18;;;;;;;0.35;0.35;;;;;;;9.02;41.84;92271.81;4953506;28;20479;-76
2021/05/19 05:13:43;;;;;;;0.40;0.40;;;;;;;9.07;41.96;92281.41;4952835;28;20568;-78
2021/05/19 05:16:09;;;;;;;0.82;0.50;;;;;;;9.21;41.71;92284.88;4941529;28;20541;-77
2021/05/19 05:18:36;;;;;;;0.47;0.30;;;;;;;9.46;40.90;92288.19;4951339;28;20054;-76
2021/05/19 05:21:03;;;;;;;0.85;0.50;;;;;;;9.56;41.07;92294.03;4951347;28;20031;-77
2021/05/19 05:23:29;;;;;;;0.38;0.38;;;;;;;9.66;39.88;92295.75;4949551;28;20662;-76
2021/05/19 05:25:55;;;;;;;0.40;0.40;;;;;;;9.76;41.35;92298.19;4954161;28;20145;-76
2021/05/19 05:28:21;;;;;;;0.63;0.55;;;;;;;10.00;40.65;92303.31;4951222;28;20477;-76
2021/05/19 05:30:47;;;;;;;0.40;0.40;;;;;;;10.19;41.31;92305.88;4964225;28;20134;-75
2021/05/19 05:33:12;;;;;;;0.95;0.50;;;;;;;10.25;42.54;92311.81;4952151;28;20047;-77
2021/05/19 05:35:38;;;;;;;0.40;0.35;;;;;;;10.26;42.91;92305.50;4935830;28;20078;-79
2021/05/19 05:38:03;;;;;;;0.40;0.40;;;;;;;10.29;41.56;92309.41;4954905;28;20066;-78
2021/05/19 05:40:29;;;;;;;0.43;0.43;;;;;;;10.33;41.47;92303.31;4952974;28;20055;-79
2021/05/19 05:42:55;;;;;;;1.75;0.52;;;;;;;10.40;42.12;92303.72;4956397;28;20137;-80
2021/05/19 05:45:20;;;;;;;0.40;0.40;;;;;;;10.50;41.17;92304.59;4939739;28;20047;-79
2021/05/19 05:47:46;;;;;;;0.47;0.47;;;;;;;10.73;40.56;92305.47;4951774;28;20067;-79
2021/05/19 05:50:12;;;;;;;0.68;0.60;;;;;;;11.15;38.38;92303.63;4955371;28;20145;-80
2021/05/19 05:52:38;;;;;;;0.68;0.68;;;;;;;12.20;38.05;92305.22;4938208;28;20047;-80
2021/05/19 05:55:05;;;;;;;0.98;0.80;;;;;;;15.22;31.21;92298.88;4952630;28;20415;-80
2021/05/19 05:57:31;;;;;;;0.57;0.50;;;;;;;17.82;28.20;92291.28;4937841;28;20422;-80
2021/05/19 05:59:57;;;;;;;0.50;0.50;;;;;;;19.57;25.57;92300.22;4954865;28;20425;-80
2021/05/19 06:02:23;;;;;;;1.17;0.65;;;;;;;21.30;23.22;92304.22;4937434;28;20086;-80
2021/05/19 06:04:49;;;;;;;1.23;0.75;;;;;;;21.51;21.50;92298.50;4938440;28;20416;-80
2021/05/19 06:07:14;;;;;;;1.25;0.77;;;;;;;22.02;21.48;92298.03;4953336;28;20659;-80
2021/05/19 06:09:44;;;;;;;1.63;0.80;;;;;;;22.38;20.57;92298.47;4941411;28;20047;-81
2021/05/19 06:12:09;;;;;;;1.63;0.77;;;;;;;23.56;19.94;92304.94;4958604;28;20110;-81
2021/05/19 06:14:35;;;;;;;1.48;0.80;;;;;;;23.47;19.38;92301.81;4951320;28;20155;-81
2021/05/19 06:17:03;;;;;;;1.13;0.80;;;;;;;24.36;18.53;92311.47;4937798;28;20429;-81
2021/05/19 06:19:28;;;;;;;0.60;0.60;;;;;;;25.42;16.55;92306.75;4954843;28;20043;-82
2021/05/19 06:21:54;;;;;;;1.85;0.70;;;;;;;23.96;17.95;92310.53;4953561;28;20050;-80
2021/05/19 06:24:19;;;;;;;1.35;0.60;;;;;;;22.90;19.03;92312.75;4953447;28;20402;-80
2021/05/19 06:26:45;;;;;;;0.70;0.70;;;;;;;24.47;18.93;92321.09;4954684;28;20055;-80
2021/05/19 06:29:11;;;;;;;1.27;0.80;;;;;;;25.59;17.04;92324.75;4955367;28;20058;-80
2021/05/19 06:31:38;;;;;;;0.52;0.52;;;;;;;25.83;16.20;92328.56;4962899;28;20502;-80
2021/05/19 06:34:04;;;;;;;0.60;0.60;;;;;;;23.26;18.63;92326.47;4946294;29;20043;-80
2021/05/19 06:36:30;;;;;;;2.05;0.90;;;;;;;21.41;22.55;92324.63;4949696;28;20106;-81
2021/05/19 06:38:55;;;;;;;0.98;0.65;;;;;;;23.61;20.08;92331.28;4951062;29;20046;-80
2021/05/19 06:41:21;;;;;;;0.20;0.20;;;;;;;24.94;18.18;92324.69;4976490;28;20049;-80
2021/05/19 06:43:46;;;;;;;0.85;0.20;;;;;;;22.66;19.06;92330.06;4938624;29;20209;-80
2021/05/19 06:46:12;;;;;;;1.08;0.17;;;;;;;22.09;19.49;92332.78;4979530;28;20125;-80
2021/05/19 06:48:38;;;;;;;0.90;0.40;;;;;;;21.46;21.24;92344.06;4980743;28;20097;-80
2021/05/19 06:51:04;;;;;;;0.95;0.40;;;;;;;20.62;20.83;92343.00;4984910;28;20130;-80
2021/05/19 06:53:30;;;;;;;0.65;0.30;;;;;;;19.67;24.56;92344.81;4980748;28;20050;-80
2021/05/19 06:55:57;;;;;;;0.28;0.20;;;;;;;19.25;22.89;92350.69;4966120;28;20050;-80
2021/05/19 06:58:23;;;;;;;0.10;0.10;;;;;;;18.26;25.21;92346.97;4953413;28;20119;-81
2021/05/19 07:00:49;;;;;;;0.20;0.20;;;;;;;17.18;26.62;92349.09;4991258;28;20508;-80
2021/05/19 07:03:14;;;;;;;0.52;0.32;;;;;;;17.51;26.34;92353.50;4980628;28;20039;-80
2021/05/19 07:05:40;;;;;;;0.30;0.30;;;;;;;16.31;26.17;92357.91;4986323;28;20106;-81
2021/05/19 07:08:06;;;;;;;1.02;0.30;;;;;;;15.59;26.96;92359.78;4961618;28;20031;-80
2021/05/19 07:10:32;;;;;;;0.75;0.40;;;;;;;14.96;33.44;92359.63;4969194;28;20057;-80
2021/05/19 07:12:58;;;;;;;0.55;0.50;;;;;;;14.84;29.08;92362.13;4983402;28;20388;-80
2021/05/19 07:15:24;;;;;;;1.33;0.50;;;;;;;14.90;30.38;92363.50;4962747;28;20043;-79
2021/05/19 07:17:50;;;;;;;0.60;0.32;;;;;;;14.83;28.67;92371.13;4986843;28;20039;-80
2021/05/19 07:20:15;;;;;;;0.22;0.22;;;;;;;14.74;27.82;92363.25;4978317;28;20077;-80
2021/05/19 07:22:41;;;;;;;0.20;0.20;;;;;;;14.46;28.46;92368.88;4991196;28;20046;-79
2021/05/19 07:25:09;;;;;;;0.43;0.40;;;;;;;14.49;29.13;92378.00;4962660;28;20050;-80
2021/05/19 07:27:35;;;;;;;0.20;0.20;;;;;;;14.75;30.09;92365.59;4977721;28;20608;-80
2021/05/19 07:30:01;;;;;;;0.32;0.32;;;;;;;14.34;29.62;92355.53;4998339;28;20078;-80
2021/05/19 07:32:27;;;;;;;0.68;0.40;;;;;;;14.69;29.99;92360.78;4961965;28;20058;-78
2021/05/19 07:34:53;;;;;;;0.40;0.40;;;;;;;14.98;28.17;92363.50;4973977;28;20046;-79
2021/05/19 07:37:19;;;;;;;0.43;0.35;;;;;;;15.08;30.26;92366.88;4976513;28;20031;-79
2021/05/19 07:39:45;;;;;;;0.55;0.40;;;;;;;15.22;30.07;92371.91;4944152;29;20418;-79
2021/05/19 07:42:16;;;;;;;0.40;0.38;;;;;;;15.05;31.15;92373.53;4976094;28;20043;-79
2021/05/19 07:44:43;;;;;;;0.40;0.40;;;;;;;15.02;29.35;92373.38;4964699;28;20054;-79
2021/05/19 07:47:09;;;;;;;0.55;0.30;;;;;;;14.77;28.84;92360.78;4973576;28;20317;-79
2021/05/19 07:49:35;;;;;;;0.32;0.32;;;;;;;14.88;28.49;92357.78;4977444;28;20408;-80
2021/05/19 07:52:01;;;;;;;0.20;0.20;;;;;;;15.26;29.60;92365.69;4977158;28;20047;-79
2021/05/19 07:54:29;;;;;;;0.63;0.40;;;;;;;14.97;28.72;92376.97;4977275;28;20110;-79
2021/05/19 07:56:58;;;;;;;0.30;0.30;;;;;;;15.07;28.06;92376.63;4968771;28;20395;-79
2021/05/19 07:59:27;;;;;;;0.95;0.45;;;;;;;15.25;28.75;92373.94;4960246;28;20074;-79
2021/05/19 08:02:04;;;;;;;1.48;0.47;;;;;;;15.25;28.84;92381.84;4940930;29;20106;-79
2021/05/19 08:04:32;;;;;;;0.30;0.30;;;;;;;15.15;27.79;92380.31;4960371;28;20424;-79
2021/05/19 08:06:58;;;;;;;0.35;0.30;;;;;;;15.44;27.50;92374.28;4968735;28;20086;-79
2021/05/19 08:09:23;;;;;;;4.85;0.55;;;;;;;15.79;29.33;92380.19;4959747;28;20043;-79
2021/05/19 08:11:49;;;;;;;2.92;0.40;;;;;;;16.31;27.49;92383.56;4956690;28;20035;-79
2021/05/19 08:14:15;;;;;;;0.40;0.40;;;;;;;16.52;30.02;92388.78;4957237;28;20057;-79
2021/05/19 08:16:41;;;;;;;0.20;0.20;;;;;;;16.34;26.09;92381.00;4941105;28;20403;-80
2021/05/19 08:19:07;;;;;;;0.82;0.65;;;;;;;16.11;27.20;92375.31;4942766;29;20567;-79
2021/05/19 08:21:34;;;;;;;0.32;0.30;;;;;;;16.54;28.44;92386.59;4955541;28;20054;-80
2021/05/19 08:23:59;;;;;;;0.65;0.30;;;;;;;16.82;25.51;92390.25;4940273;29;20521;-79
2021/05/19 08:26:25;;;;;;;0.30;0.20;;;;;;;17.08;26.36;92380.50;4963683;28;20098;-80
2021/05/19 08:28:51;;;;;;;0.47;0.30;;;;;;;16.96;28.35;92378.59;4960344;28;20039;-80
2021/05/19 08:31:19;;;;;;;0.40;0.40;;;;;;;16.65;26.90;92382.47;4965763;28;20297;-79
2021/05/19 08:33:49;;;;;;;0.20;0.20;;;;;;;16.26;26.89;92387.16;4959707;28;20031;-80
2021/05/19 08:36:16;;;;;;;0.20;0.20;;;;;;;15.79;26.08;92374.13;4964420;28;20083;-80
2021/05/19 08:38:43;;;;;;;0.77;0.30;;;;;;;15.58;26.34;92374.84;4963152;28;20387;-80
2021/05/19 08:41:10;;;;;;;0.50;0.50;;;;;;;15.95;27.41;92383.03;4958185;28;20055;-79
2021/05/19 08:43:36;;;;;;;2.67;0.40;;;;;;;16.13;27.07;92381.03;4972001;28;20469;-79
2021/05/19 08:46:10;;;;;;;0.52;0.40;;;;;;;16.17;26.98;92367.97;4964371;28;20070;-79
2021/05/19 08:48:37;;;;;;;0.63;0.43;;;;;;;16.27;28.10;92378.13;4953836;28;20051;-79
2021/05/19 08:51:04;;;;;;;0.57;0.40;;;;;;;16.38;28.73;92368.72;4953976;28;20034;-80
2021/05/19 08:53:31;;;;;;;0.30;0.30;;;;;;;16.56;25.84;92379.91;4954797;28;20051;-80
2021/05/19 08:55:57;;;;;;;0.28;0.28;;;;;;;16.49;26.20;92376.25;4958834;28;20046;-80
2021/05/19 08:58:24;;;;;;;0.40;0.35;;;;;;;16.91;27.76;92390.16;4939753;29;20349;-80
2021/05/19 09:00:49;;;;;;;0.30;0.20;;;;;;;16.54;26.09;92381.31;4958291;28;20043;-80
2021/05/19 09:03:17;;;;;;;0.40;0.40;;;;;;;16.02;27.16;92370.09;4945769;28;20086;-81
2021/05/19 09:05:45;;;;;;;0.95;0.57;;;;;;;15.26;27.28;92388.66;4962325;28;20069;-81
2021/05/19 09:08:19;;;;;;;0.85;0.45;;;;;;;15.25;26.04;92381.84;4944958;28;20074;-80
2021/05/19 09:10:59;;;;;;;0.43;0.40;;;;;;;15.77;27.92;92378.97;4971799;28;20039;-80
2021/05/19 09:13:39;;;;;;;0.88;0.50;;;;;;;15.98;27.30;92374.47;4956490;28;20043;-80
2021/05/19 09:16:05;;;;;;;0.63;0.50;;;;;;;16.06;28.83;92364.94;4955157;28;20035;-81
2021/05/19 09:18:54;;;;;;;1.00;0.40;;;;;;;16.27;25.09;92383.41;4957107;28;20118;-80
2021/05/19 09:21:36;;;;;;;0.30;0.30;;;;;;;16.29;27.31;92380.44;4940226;29;20051;-81
2021/05/19 09:24:06;;;;;;;0.20;0.20;;;;;;;16.37;26.41;92375.09;4960572;28;20042;-81
2021/05/19 09:26:33;;;;;;;0.70;0.30;;;;;;;16.16;23.78;92361.13;4966636;28;20506;-81
2021/05/19 09:29:20;;;;;;;0.52;0.40;;;;;;;16.11;24.48;92370.03;4975321;28;20053;-80
2021/05/19 09:31:55;;;;;;;0.22;0.22;;;;;;;16.48;25.41;92378.09;4963218;28;20046;-81
2021/05/19 09:34:29;;;;;;;0.93;0.70;;;;;;;16.22;23.75;92375.69;4956847;29;20043;-81
2021/05/19 09:37:17;;;;;;;0.77;0.30;;;;;;;16.40;25.39;92366.53;4957499;28;20067;-80
2021/05/19 09:40:06;;;;;;;0.40;0.40;;;;;;;15.57;25.82;92365.38;4939927;29;20515;-80
2021/05/19 09:42:35;;;;;;;1.70;0.47;;;;;;;16.10;27.55;92367.69;4947947;28;20271;-80
2021/05/19 09:47:44;;;;;;;1.55;0.38;;;;;;;16.47;26.28;92370.50;4954916;28;20062;-81
2021/05/19 09:50:16;;;;;;;0.63;0.40;;;;;;;15.71;26.63;92374.97;4956801;29;20047;-81
2021/05/19 09:53:01;;;;;;;0.30;0.30;;;;;;;15.65;25.01;92360.38;4955803;28;20055;-81
2021/05/19 09:55:27;;;;;;;0.82;0.52;;;;;;;15.16;25.65;92368.69;4939524;29;20063;-81
2021/05/19 09:57:53;;;;;;;0.45;0.45;;;;;;;15.68;26.95;92373.72;4956566;28;20035;-81
2021/05/19 10:00:25;;;;;;;1.23;0.50;;;;;;;16.07;25.15;92366.47;4967309;28;20051;-81
2021/05/19 10:02:52;;;;;;;1.17;0.57;;;;;;;15.99;28.59;92376.03;4968343;28;20043;-81
2021/05/19 10:05:46;;;;;;;0.43;0.40;;;;;;;16.41;24.92;92376.00;4939488;29;20418;-81
2021/05/19 10:08:04;;;;;;;0.40;0.40;;;;;;;16.98;27.01;92376.41;4961462;28;20518;-81
2021/05/19 10:10:30;;;;;;;0.95;0.47;;;;;;;16.76;23.65;92370.38;4956778;28;20042;-81
2021/05/19 10:12:56;;;;;;;0.68;0.50;;;;;;;16.72;25.17;92369.47;4926924;28;20629;-81
2021/05/19 10:15:28;;;;;;;0.60;0.40;;;;;;;16.36;24.26;92368.25;4960853;28;20047;-81
2021/05/19 10:18:01;;;;;;;;;;;;;;;16.75;23.68;92375.97;4959452;28;20058;-81
2021/05/19 10:20:29;;;;;;;;;;;;;;;17.06;24.76;92375.53;4962186;28;19918;-81
2021/05/19 10:22:55;;;;;;;0.50;0.35;;;;;;;17.08;24.05;92362.75;4974977;28;20356;-82
2021/05/19 10:25:39;;;;;;;1.00;0.32;;;;;;;16.56;24.10;92358.75;4980046;28;20042;-82
2021/05/19 10:28:10;;;;;;;0.40;0.40;;;;;;;17.07;23.62;92371.81;4965245;28;20066;-82
2021/05/19 10:30:48;;;;;;;0.20;0.20;;;;;;;16.73;23.87;92352.53;4943301;29;20079;-82
2021/05/19 10:33:29;;;;;;;0.45;0.43;;;;;;;16.43;24.87;92351.88;4957805;28;20043;-82
2021/05/19 10:35:57;;;;;;;0.25;0.25;;;;;;;16.37;25.95;92348.69;4939400;28;20047;-83
2021/05/19 10:38:34;;;;;;;0.40;0.40;;;;;;;16.18;24.14;92343.88;4953824;28;20070;-80
2021/05/19 10:41:02;;;;;;;1.40;0.35;;;;;;;16.53;25.26;92338.28;4960063;28;20073;-78
2021/05/19 10:43:47;;;;;;;1.38;0.30;;;;;;;16.81;23.71;92354.34;4934716;28;20035;-78
2021/05/19 10:46:17;;;;;;;0.43;0.38;;;;;;;16.77;25.03;92326.97;4958221;28;20137;-78
2021/05/19 10:48:54;;;;;;;0.32;0.30;;;;;;;17.02;24.18;92333.13;4975339;28;20042;-79
2021/05/19 10:51:38;;;;;;;0.68;0.40;;;;;;;17.24;23.77;92347.78;4975229;28;20489;-79
2021/05/19 11:00:12;;;;;;;0.47;0.40;;;;;;;17.47;24.13;92331.44;4972719;28;20044;-81
2021/05/19 11:02:54;;;;;;;1.55;0.43;;;;;;;16.96;24.06;92331.03;4977638;28;20138;-82
2021/05/19 11:05:20;;;;;;;0.85;0.43;;;;;;;17.39;23.96;92327.81;4974022;28;20050;-82
2021/05/19 11:08:05;;;;;;;0.63;0.63;;;;;;;17.32;22.92;92332.91;4968705;28;20398;-81
2021/05/19 11:10:31;;;;;;;0.63;0.30;;;;;;;17.28;23.99;92324.09;4967778;28;20050;-82
2021/05/19 11:12:57;;;;;;;1.08;0.50;;;;;;;17.50;24.50;92317.56;4992565;28;20567;-82
2021/05/19 11:20:55;;;;;;;1.67;0.57;;;;;;;17.99;23.49;92317.50;4972749;28;20089;-81
2021/05/19 11:23:20;;;;;;;1.75;0.52;;;;;;;17.60;22.90;92321.63;4973789;28;20607;-80
2021/05/19 11:25:47;;;;;;;0.73;0.40;;;;;;;17.24;22.99;92317.91;4978434;28;20081;-81
2021/05/19 11:28:14;;;;;;;0.30;0.30;;;;;;;17.50;21.86;92316.81;4979232;28;20471;-82
2021/05/19 11:30:40;;;;;;;2.33;0.68;;;;;;;17.48;23.15;92309.97;4960163;28;20058;-81
2021/05/19 11:33:08;;;;;;;1.30;0.80;;;;;;;17.45;23.17;92307.19;4978377;28;20062;-80
2021/05/19 11:35:34;;;;;;;0.50;0.50;;;;;;;17.55;22.81;92306.75;4961727;28;20512;-81
2021/05/19 11:38:08;;;;;;;0.68;0.50;;;;;;;17.40;22.49;92299.50;4962718;28;20058;-80
2021/05/19 11:40:44;;;;;;;0.75;0.43;;;;;;;17.31;21.96;92302.25;4977970;28;20162;-80
2021/05/19 11:43:11;;;;;;;0.35;0.32;;;;;;;17.59;22.29;92310.28;4978256;28;20125;-81
2021/05/19 11:45:40;;;;;;;1.55;0.70;;;;;;;17.87;21.46;92306.94;4955893;28;20050;-80
2021/05/19 11:48:28;;;;;;;0.80;0.47;;;;;;;18.25;22.75;92308.34;4977417;28;20078;-81
2021/05/19 11:50:55;;;;;;;1.85;0.55;;;;;;;17.75;21.33;92291.06;4977696;28;20094;-81
2021/05/19 11:53:21;;;;;;;0.32;0.32;;;;;;;17.52;22.14;92296.84;4977620;28;20071;-81
2021/05/19 11:55:51;;;;;;;0.55;0.50;;;;;;;17.72;22.23;92297.00;4978506;28;20517;-81
2021/05/19 11:58:43;;;;;;;2.00;0.77;;;;;;;18.37;24.98;92303.00;4977138;28;20045;-81